createdAt,value
2023-10-18T00:00:25.041Z,22.09
2023-10-18T00:01:30.861Z,22.09
2023-10-18T00:02:36.706Z,22.09
2023-10-18T00:03:42.364Z,22.06
2023-10-18T00:04:48.309Z,22.05
2023-10-18T00:05:53.945Z,22.04
2023-10-18T00:06:59.454Z,22.06
2023-10-18T00:08:05.085Z,22.05
2023-10-18T00:09:10.671Z,22.03
2023-10-18T00:10:16.280Z,22.02
2023-10-18T00:11:22.110Z,22.04
2023-10-18T00:12:27.589Z,22.05
2023-10-18T00:13:33.149Z,22.03
2023-10-18T00:14:38.774Z,22.01
2023-10-18T00:15:44.336Z,21.99
2023-10-18T00:16:50.007Z,21.99
2023-10-18T00:17:55.672Z,21.98
2023-10-18T00:19:01.553Z,21.98
2023-10-18T00:20:07.471Z,21.99
2023-10-18T00:21:12.998Z,21.95
2023-10-18T00:22:18.565Z,21.97
2023-10-18T00:23:24.091Z,21.97
2023-10-18T00:24:29.915Z,21.96
2023-10-18T00:25:35.454Z,21.94
2023-10-18T00:26:40.981Z,21.93
2023-10-18T00:27:46.842Z,21.94
2023-10-18T00:28:52.714Z,21.95
2023-10-18T00:29:58.236Z,21.93
2023-10-18T00:31:03.879Z,21.92
2023-10-18T00:32:09.662Z,21.92
2023-10-18T00:33:15.175Z,21.95
2023-10-18T00:34:20.708Z,21.92
2023-10-18T00:35:26.207Z,21.92
2023-10-18T00:36:32.842Z,21.92
2023-10-18T00:37:38.481Z,21.91
2023-10-18T00:38:43.994Z,21.9
2023-10-18T00:39:49.551Z,21.88
2023-10-18T00:40:55.215Z,21.87
2023-10-18T00:42:00.945Z,21.85
2023-10-18T00:43:06.628Z,21.86
2023-10-18T00:44:12.297Z,21.85
2023-10-18T00:45:17.805Z,21.85
2023-10-18T00:46:23.371Z,21.85
2023-10-18T00:47:29.202Z,21.85
2023-10-18T00:48:35.391Z,21.84
2023-10-18T00:49:41.023Z,21.83
2023-10-18T00:50:46.770Z,21.84
2023-10-18T00:51:52.456Z,21.83
2023-10-18T00:52:58.170Z,21.84
2023-10-18T00:54:03.685Z,21.86
2023-10-18T00:55:09.219Z,21.86
2023-10-18T00:56:14.856Z,21.85
2023-10-18T00:57:20.844Z,21.85
2023-10-18T00:58:51.878Z,21.85
2023-10-18T00:59:57.396Z,21.85
2023-10-18T01:01:03.108Z,21.85
2023-10-18T01:02:08.945Z,21.84
2023-10-18T01:03:14.724Z,21.84
2023-10-18T01:04:20.885Z,21.84
2023-10-18T01:05:26.553Z,21.84
2023-10-18T01:06:32.202Z,21.83
2023-10-18T01:07:38.003Z,21.82
2023-10-18T01:08:43.866Z,21.8
2023-10-18T01:09:49.424Z,21.82
2023-10-18T01:10:55.069Z,21.8
2023-10-18T01:12:00.586Z,21.79
2023-10-18T01:13:06.103Z,21.79
2023-10-18T01:14:11.814Z,21.79
2023-10-18T01:15:17.415Z,21.77
2023-10-18T01:16:23.390Z,21.76
2023-10-18T01:17:29.453Z,21.76
2023-10-18T01:18:35.019Z,21.76
2023-10-18T01:19:40.628Z,21.75
2023-10-18T01:20:46.173Z,21.74
2023-10-18T01:21:51.768Z,21.75
2023-10-18T01:22:57.495Z,21.76
2023-10-18T01:24:03.019Z,21.74
2023-10-18T01:25:08.583Z,21.73
2023-10-18T01:26:14.358Z,21.72
2023-10-18T01:27:20.194Z,21.71
2023-10-18T01:28:27.155Z,21.71
2023-10-18T01:29:32.694Z,21.73
2023-10-18T01:30:38.241Z,21.71
2023-10-18T01:31:44.108Z,21.72
2023-10-18T01:32:50.189Z,21.71
2023-10-18T01:33:56.019Z,21.71
2023-10-18T01:35:01.764Z,21.71
2023-10-18T01:36:07.251Z,21.7
2023-10-18T01:37:12.763Z,21.7
2023-10-18T01:38:18.454Z,21.69
2023-10-18T01:39:24.061Z,21.69
2023-10-18T01:40:29.652Z,21.69
2023-10-18T01:41:35.314Z,21.68
2023-10-18T01:42:41.143Z,21.67
2023-10-18T01:43:46.813Z,21.67
2023-10-18T01:44:52.357Z,21.68
2023-10-18T01:45:57.897Z,21.69
2023-10-18T01:47:04.771Z,21.68
2023-10-18T01:48:10.530Z,21.67
2023-10-18T01:49:16.244Z,21.67
2023-10-18T01:50:21.974Z,21.67
2023-10-18T01:51:27.476Z,21.67
2023-10-18T01:52:32.953Z,21.66
2023-10-18T01:53:38.490Z,21.66
2023-10-18T01:54:44.028Z,21.65
2023-10-18T01:55:49.720Z,21.64
2023-10-18T01:56:55.264Z,21.64
2023-10-18T01:58:00.787Z,21.64
2023-10-18T01:59:06.459Z,21.64
2023-10-18T02:00:12.049Z,21.64
2023-10-18T02:01:18.127Z,21.63
2023-10-18T02:02:24.333Z,21.63
2023-10-18T02:03:30.150Z,21.63
2023-10-18T02:04:49.260Z,21.62
2023-10-18T02:05:58.793Z,21.62
2023-10-18T02:07:04.407Z,21.61
2023-10-18T02:08:10.045Z,21.61
2023-10-18T02:09:15.672Z,21.61
2023-10-18T02:10:21.213Z,21.61
2023-10-18T02:11:26.758Z,21.61
2023-10-18T02:12:32.272Z,21.6
2023-10-18T02:13:37.850Z,21.6
2023-10-18T02:14:43.515Z,21.6
2023-10-18T02:15:49.102Z,21.59
2023-10-18T02:16:54.833Z,21.59
2023-10-18T02:18:00.746Z,21.6
2023-10-18T02:19:06.621Z,21.6
2023-10-18T02:20:12.288Z,21.6
2023-10-18T02:21:17.826Z,21.6
2023-10-18T02:22:23.358Z,21.61
2023-10-18T02:23:28.892Z,21.6
2023-10-18T02:24:34.441Z,21.6
2023-10-18T02:25:40.005Z,21.6
2023-10-18T02:26:45.542Z,21.59
2023-10-18T02:27:51.105Z,21.59
2023-10-18T02:28:56.643Z,21.58
2023-10-18T02:30:02.137Z,21.58
2023-10-18T02:31:07.766Z,21.58
2023-10-18T02:32:13.437Z,21.58
2023-10-18T02:33:18.952Z,21.58
2023-10-18T02:34:29.470Z,21.57
2023-10-18T02:35:35.761Z,21.57
2023-10-18T02:36:41.333Z,21.57
2023-10-18T02:37:46.947Z,21.57
2023-10-18T02:38:52.530Z,21.56
2023-10-18T02:40:04.826Z,21.56
2023-10-18T02:41:12.032Z,21.56
2023-10-18T02:42:17.541Z,21.56
2023-10-18T02:43:23.060Z,21.56
2023-10-18T02:44:28.623Z,21.55
2023-10-18T02:45:34.272Z,21.55
2023-10-18T02:46:39.833Z,21.55
2023-10-18T02:47:45.666Z,21.55
2023-10-18T02:48:51.331Z,21.55
2023-10-18T02:49:56.989Z,21.55
2023-10-18T02:51:02.644Z,21.56
2023-10-18T02:52:08.174Z,21.56
2023-10-18T02:53:13.945Z,21.55
2023-10-18T02:54:19.529Z,21.56
2023-10-18T02:55:25.120Z,21.54
2023-10-18T02:56:30.644Z,21.53
2023-10-18T02:57:36.185Z,21.53
2023-10-18T02:58:42.140Z,21.52
2023-10-18T02:59:47.955Z,21.52
2023-10-18T03:00:53.456Z,21.52
2023-10-18T03:01:59.114Z,21.53
2023-10-18T03:03:04.746Z,21.53
2023-10-18T03:04:10.614Z,21.53
2023-10-18T03:05:16.476Z,21.51
2023-10-18T03:06:22.040Z,21.51
2023-10-18T03:07:27.607Z,21.52
2023-10-18T03:08:33.123Z,21.53
2023-10-18T03:09:38.677Z,21.52
2023-10-18T03:10:44.236Z,21.51
2023-10-18T03:11:49.820Z,21.5
2023-10-18T03:12:55.341Z,21.49
2023-10-18T03:14:01.052Z,21.5
2023-10-18T03:15:06.700Z,21.48
2023-10-18T03:16:12.292Z,21.49
2023-10-18T03:17:18.094Z,21.51
2023-10-18T03:18:24.169Z,21.51
2023-10-18T03:19:29.931Z,21.51
2023-10-18T03:20:35.622Z,21.52
2023-10-18T03:21:41.196Z,21.52
2023-10-18T03:22:46.945Z,21.53
2023-10-18T03:23:52.516Z,21.53
2023-10-18T03:24:58.197Z,21.53
2023-10-18T03:26:04.437Z,21.54
2023-10-18T03:27:09.982Z,21.55
2023-10-18T03:28:15.613Z,21.55
2023-10-18T03:29:21.276Z,21.56
2023-10-18T03:30:26.850Z,21.58
2023-10-18T03:31:32.480Z,21.58
2023-10-18T03:32:38.346Z,21.59
2023-10-18T03:33:43.966Z,21.59
2023-10-18T03:34:49.622Z,21.59
2023-10-18T03:35:55.814Z,21.6
2023-10-18T03:37:22.896Z,21.6
2023-10-18T03:38:28.443Z,21.61
2023-10-18T03:39:33.955Z,21.6
2023-10-18T03:40:40.546Z,21.6
2023-10-18T03:41:46.076Z,21.62
2023-10-18T03:42:51.653Z,21.63
2023-10-18T03:43:57.253Z,21.62
2023-10-18T03:45:05.256Z,21.61
2023-10-18T03:46:10.963Z,21.61
2023-10-18T03:47:16.899Z,21.62
2023-10-18T03:48:22.430Z,21.63
2023-10-18T03:49:28.124Z,21.64
2023-10-18T03:50:34.613Z,21.64
2023-10-18T03:51:40.304Z,21.64
2023-10-18T03:52:46.069Z,21.63
2023-10-18T03:53:51.606Z,21.65
2023-10-18T03:54:57.551Z,21.64
2023-10-18T03:56:03.231Z,21.64
2023-10-18T03:57:08.765Z,21.65
2023-10-18T03:58:14.290Z,21.65
2023-10-18T03:59:19.923Z,21.64
2023-10-18T04:00:25.468Z,21.65
2023-10-18T04:01:31.066Z,21.64
2023-10-18T04:02:36.879Z,21.64
2023-10-18T04:03:42.784Z,21.64
2023-10-18T04:04:48.603Z,21.64
2023-10-18T04:05:54.303Z,21.67
2023-10-18T04:07:00.043Z,21.69
2023-10-18T04:08:05.897Z,21.75
2023-10-18T04:09:11.488Z,21.74
2023-10-18T04:10:17.095Z,21.78
2023-10-18T04:11:22.772Z,21.75
2023-10-18T04:12:28.322Z,21.76
2023-10-18T04:13:33.919Z,21.76
2023-10-18T04:14:39.547Z,21.78
2023-10-18T04:15:45.083Z,21.81
2023-10-18T04:16:51.637Z,21.83
2023-10-18T04:17:57.208Z,21.86
2023-10-18T04:19:02.860Z,21.87
2023-10-18T04:20:08.580Z,21.89
2023-10-18T04:21:14.138Z,21.91
2023-10-18T04:22:20.104Z,21.91
2023-10-18T04:23:25.701Z,21.92
2023-10-18T04:24:31.616Z,21.98
2023-10-18T04:25:37.203Z,21.98
2023-10-18T04:26:42.955Z,21.98
2023-10-18T04:27:48.517Z,21.97
2023-10-18T04:28:54.143Z,21.99
2023-10-18T04:29:59.671Z,21.99
2023-10-18T04:31:08.371Z,21.98
2023-10-18T04:32:14.503Z,22
2023-10-18T04:33:20.052Z,21.96
2023-10-18T04:34:25.742Z,21.97
2023-10-18T04:35:31.441Z,21.97
2023-10-18T04:36:37.217Z,21.96
2023-10-18T04:37:42.729Z,21.96
2023-10-18T04:38:48.336Z,21.95
2023-10-18T04:39:54.003Z,21.96
2023-10-18T04:40:59.631Z,21.95
2023-10-18T04:42:05.167Z,21.98
2023-10-18T04:43:10.889Z,21.97
2023-10-18T04:44:16.530Z,21.95
2023-10-18T04:45:22.489Z,21.94
2023-10-18T04:46:28.723Z,21.95
2023-10-18T04:47:34.938Z,21.98
2023-10-18T04:48:40.555Z,21.95
2023-10-18T04:49:46.209Z,21.95
2023-10-18T04:50:51.747Z,21.95
2023-10-18T04:51:57.332Z,21.98
2023-10-18T04:53:02.917Z,22.06
2023-10-18T04:54:10.107Z,22.1
2023-10-18T04:55:17.131Z,22.13
2023-10-18T04:56:22.817Z,22.13
2023-10-18T04:57:28.827Z,22.17
2023-10-18T04:58:34.345Z,22.23
2023-10-18T04:59:39.911Z,22.23
2023-10-18T05:00:45.466Z,22.24
2023-10-18T05:01:51.237Z,22.22
2023-10-18T05:02:57.011Z,22.21
2023-10-18T05:04:02.899Z,22.21
2023-10-18T05:05:08.688Z,22.22
2023-10-18T05:06:14.222Z,22.2
2023-10-18T05:07:19.770Z,22.16
2023-10-18T05:08:25.417Z,22.16
2023-10-18T05:09:31.082Z,22.14
2023-10-18T05:10:36.783Z,22.12
2023-10-18T05:11:42.310Z,22.08
2023-10-18T05:12:47.812Z,22.09
2023-10-18T05:13:53.494Z,22.08
2023-10-18T05:14:59.081Z,22.09
2023-10-18T05:16:04.665Z,22.11
2023-10-18T05:17:10.683Z,22.13
2023-10-18T05:18:16.564Z,22.13
2023-10-18T05:19:22.328Z,22.13
2023-10-18T05:20:27.944Z,22.13
2023-10-18T05:21:33.428Z,22.12
2023-10-18T05:22:38.944Z,22.12
2023-10-18T05:23:44.502Z,22.13
2023-10-18T05:24:50.280Z,22.13
2023-10-18T05:25:55.977Z,22.14
2023-10-18T05:27:01.545Z,22.12
2023-10-18T05:28:07.138Z,22.13
2023-10-18T05:29:12.946Z,22.12
2023-10-18T05:30:18.432Z,22.13
2023-10-18T05:31:24.029Z,22.14
2023-10-18T05:32:41.789Z,22.14
2023-10-18T05:33:55.562Z,22.13
2023-10-18T05:35:10.790Z,22.12
2023-10-18T05:36:18.251Z,22.11
2023-10-18T05:37:23.786Z,22.14
2023-10-18T05:38:29.488Z,22.14
2023-10-18T05:39:35.021Z,22.14
2023-10-18T05:40:40.554Z,22.16
2023-10-18T05:41:46.323Z,22.15
2023-10-18T05:42:51.825Z,22.16
2023-10-18T05:43:57.560Z,22.16
2023-10-18T05:45:03.659Z,22.15
2023-10-18T05:46:09.338Z,22.21
2023-10-18T05:47:15.289Z,22.23
2023-10-18T05:48:20.827Z,22.22
2023-10-18T05:49:29.550Z,22.19
2023-10-18T05:50:36.142Z,22.17
2023-10-18T05:51:41.638Z,22.13
2023-10-18T05:52:47.335Z,22.13
2023-10-18T05:53:52.959Z,22.13
2023-10-18T05:54:58.519Z,22.14
2023-10-18T05:56:04.176Z,22.1
2023-10-18T05:57:09.727Z,22.09
2023-10-18T05:58:15.267Z,22.06
2023-10-18T05:59:20.931Z,22.09
2023-10-18T06:00:26.896Z,22.09
2023-10-18T06:01:32.512Z,22.1
2023-10-18T06:02:42.333Z,22.11
2023-10-18T06:03:48.047Z,22.11
2023-10-18T06:04:53.919Z,22.12
2023-10-18T06:05:59.985Z,22.12
2023-10-18T06:07:05.588Z,22.13
2023-10-18T06:08:11.308Z,22.16
2023-10-18T06:09:16.844Z,22.15
2023-10-18T06:10:22.442Z,22.16
2023-10-18T06:11:28.094Z,22.16
2023-10-18T06:12:33.625Z,22.16
2023-10-18T06:13:39.181Z,22.15
2023-10-18T06:14:44.706Z,22.16
2023-10-18T06:15:50.298Z,22.15
2023-10-18T06:16:56.203Z,22.17
2023-10-18T06:18:01.963Z,22.15
2023-10-18T06:19:07.718Z,22.18
2023-10-18T06:20:13.391Z,22.19
2023-10-18T06:21:18.915Z,22.2
2023-10-18T06:22:24.502Z,22.19
2023-10-18T06:23:30.119Z,22.22
2023-10-18T06:24:35.685Z,22.2
2023-10-18T06:25:41.676Z,22.21
2023-10-18T06:26:49.459Z,22.22
2023-10-18T06:27:55.335Z,22.22
2023-10-18T06:29:01.005Z,22.21
2023-10-18T06:30:09.039Z,22.21
2023-10-18T06:31:14.632Z,22.21
2023-10-18T06:32:20.475Z,22.22
2023-10-18T06:33:26.371Z,22.24
2023-10-18T06:34:31.904Z,22.24
2023-10-18T06:35:37.429Z,22.25
2023-10-18T06:36:44.493Z,22.24
2023-10-18T06:37:50.433Z,22.26
2023-10-18T06:38:55.984Z,22.25
2023-10-18T06:40:01.559Z,22.28
2023-10-18T06:41:07.523Z,22.35
2023-10-18T06:42:13.096Z,22.35
2023-10-18T06:43:18.695Z,22.32
2023-10-18T06:44:24.444Z,22.32
2023-10-18T06:45:30.013Z,22.3
2023-10-18T06:46:35.853Z,22.28
2023-10-18T06:47:41.656Z,22.3
2023-10-18T06:48:59.813Z,22.29
2023-10-18T06:50:19.167Z,22.27
2023-10-18T06:51:25.032Z,22.27
2023-10-18T06:52:30.810Z,22.26
2023-10-18T06:53:36.510Z,22.25
2023-10-18T06:54:42.252Z,22.26
2023-10-18T06:55:47.805Z,22.27
2023-10-18T06:56:53.318Z,22.26
2023-10-18T06:57:58.894Z,22.27
2023-10-18T06:59:04.602Z,22.28
2023-10-18T07:00:10.132Z,22.26
2023-10-18T07:01:16.049Z,22.26
2023-10-18T07:02:21.807Z,22.29
2023-10-18T07:03:27.373Z,22.29
2023-10-18T07:04:33.143Z,22.31
2023-10-18T07:05:38.783Z,22.31
2023-10-18T07:06:44.471Z,22.32
2023-10-18T07:07:50.020Z,22.32
2023-10-18T07:08:55.617Z,22.31
2023-10-18T07:10:01.133Z,22.31
2023-10-18T07:11:18.913Z,22.31
2023-10-18T07:12:37.234Z,22.32
2023-10-18T07:13:42.769Z,22.29
2023-10-18T07:14:48.296Z,22.31
2023-10-18T07:15:56.162Z,22.3
2023-10-18T07:17:02.649Z,22.27
2023-10-18T07:18:08.440Z,22.29
2023-10-18T07:19:14.135Z,22.23
2023-10-18T07:20:19.775Z,22.21
2023-10-18T07:21:25.324Z,22.21
2023-10-18T07:22:30.981Z,22.24
2023-10-18T07:23:36.668Z,22.22
2023-10-18T07:24:42.219Z,22.22
2023-10-18T07:25:54.797Z,22.22
2023-10-18T07:27:13.283Z,22.24
2023-10-18T07:28:21.599Z,22.24
2023-10-18T07:29:27.464Z,22.26
2023-10-18T07:30:33.732Z,22.25
2023-10-18T07:31:40.535Z,22.27
2023-10-18T07:32:46.519Z,22.29
2023-10-18T07:33:52.211Z,22.27
2023-10-18T07:34:57.879Z,22.26
2023-10-18T07:36:03.428Z,22.27
2023-10-18T07:37:09.031Z,22.27
2023-10-18T07:38:15.683Z,22.24
2023-10-18T07:39:23.288Z,22.26
2023-10-18T07:40:28.843Z,22.27
2023-10-18T07:41:34.526Z,22.27
2023-10-18T07:42:40.144Z,22.26
2023-10-18T07:43:45.662Z,22.29
2023-10-18T07:44:51.297Z,22.27
2023-10-18T07:45:57.183Z,22.27
2023-10-18T07:47:02.767Z,22.26
2023-10-18T07:48:08.400Z,22.24
2023-10-18T07:49:14.183Z,22.17
2023-10-18T07:50:20.524Z,22.17
2023-10-18T07:51:28.003Z,22.16
2023-10-18T07:52:33.745Z,22.14
2023-10-18T07:53:39.293Z,22.12
2023-10-18T07:54:44.970Z,22.15
2023-10-18T07:55:50.652Z,22.14
2023-10-18T07:56:56.207Z,22.12
2023-10-18T07:58:01.717Z,22.15
2023-10-18T07:59:07.395Z,22.16
2023-10-18T08:00:12.957Z,22.17
2023-10-18T08:01:18.534Z,22.16
2023-10-18T08:02:24.515Z,22.14
2023-10-18T08:03:30.592Z,22.14
2023-10-18T08:04:37.201Z,22.13
2023-10-18T08:05:43.951Z,22.13
2023-10-18T08:06:49.894Z,22.11
2023-10-18T08:07:55.595Z,22.13
2023-10-18T08:09:01.100Z,22.1
2023-10-18T08:10:06.845Z,22.11
2023-10-18T08:11:12.978Z,22.1
2023-10-18T08:12:18.558Z,22.1
2023-10-18T08:13:24.149Z,22.1
2023-10-18T08:14:30.028Z,22.07
2023-10-18T08:15:35.906Z,22.03
2023-10-18T08:16:41.674Z,22.02
2023-10-18T08:17:47.454Z,21.98
2023-10-18T08:18:53.485Z,21.99
2023-10-18T08:19:59.397Z,21.97
2023-10-18T08:21:04.941Z,22.02
2023-10-18T08:22:10.976Z,22.02
2023-10-18T08:23:16.615Z,22.04
2023-10-18T08:24:22.260Z,22.04
2023-10-18T08:25:27.797Z,22.05
2023-10-18T08:26:33.781Z,22.05
2023-10-18T08:27:39.386Z,22.05
2023-10-18T08:28:44.974Z,22.06
2023-10-18T08:29:50.614Z,22.06
2023-10-18T08:30:56.376Z,22.02
2023-10-18T08:32:04.588Z,21.98
2023-10-18T08:33:10.571Z,21.96
2023-10-18T08:34:16.420Z,21.96
2023-10-18T08:35:22.392Z,21.97
2023-10-18T08:36:28.689Z,21.98
2023-10-18T08:37:34.566Z,21.96
2023-10-18T08:38:40.184Z,21.99
2023-10-18T08:39:45.718Z,22
2023-10-18T08:40:51.375Z,22
2023-10-18T08:41:57.794Z,22.01
2023-10-18T08:43:03.525Z,22.01
2023-10-18T08:44:09.108Z,22
2023-10-18T08:45:14.653Z,22.01
2023-10-18T08:46:20.298Z,22.02
2023-10-18T08:47:26.104Z,22.03
2023-10-18T08:48:31.812Z,22.03
2023-10-18T08:49:37.382Z,22.03
2023-10-18T08:50:43.947Z,22.03
2023-10-18T08:51:49.513Z,22.03
2023-10-18T08:52:55.152Z,22.02
2023-10-18T08:54:00.654Z,22.02
2023-10-18T08:55:06.192Z,22.01
2023-10-18T08:56:11.822Z,22.01
2023-10-18T08:57:17.387Z,22.01
2023-10-18T08:58:22.911Z,22.01
2023-10-18T08:59:28.572Z,22.01
2023-10-18T09:00:34.111Z,22.01
2023-10-18T09:01:39.689Z,22
2023-10-18T09:02:45.598Z,22
2023-10-18T09:03:51.286Z,22.01
2023-10-18T09:04:57.491Z,22
2023-10-18T09:06:03.511Z,21.99
2023-10-18T09:07:09.238Z,22
2023-10-18T09:08:14.866Z,22.01
2023-10-18T09:09:20.414Z,22.01
2023-10-18T09:10:25.968Z,22
2023-10-18T09:11:31.818Z,22.01
2023-10-18T09:12:37.465Z,22.01
2023-10-18T09:13:43.067Z,22
2023-10-18T09:14:48.811Z,22
2023-10-18T09:16:00.065Z,22
2023-10-18T09:17:07.531Z,22
2023-10-18T09:18:13.254Z,21.99
2023-10-18T09:19:18.940Z,21.99
2023-10-18T09:20:24.599Z,21.99
2023-10-18T09:21:30.159Z,21.98
2023-10-18T09:22:35.730Z,21.99
2023-10-18T09:23:42.474Z,21.98
2023-10-18T09:24:48.206Z,21.98
2023-10-18T09:25:53.736Z,21.97
2023-10-18T09:26:59.260Z,21.92
2023-10-18T09:28:04.818Z,21.9
2023-10-18T09:29:10.605Z,21.87
2023-10-18T09:30:16.137Z,21.83
2023-10-18T09:31:23.644Z,21.82
2023-10-18T09:32:29.708Z,21.85
2023-10-18T09:33:35.432Z,21.86
2023-10-18T09:34:41.012Z,21.9
2023-10-18T09:35:47.111Z,21.92
2023-10-18T09:36:52.685Z,21.93
2023-10-18T09:37:58.394Z,21.95
2023-10-18T09:39:03.903Z,21.96
2023-10-18T09:40:09.514Z,21.96
2023-10-18T09:41:15.145Z,21.94
2023-10-18T09:42:20.830Z,21.92
2023-10-18T09:43:26.379Z,21.93
2023-10-18T09:44:32.052Z,21.92
2023-10-18T09:45:37.570Z,21.92
2023-10-18T09:46:43.138Z,21.93
2023-10-18T09:47:48.983Z,21.93
2023-10-18T09:48:54.689Z,21.92
2023-10-18T09:50:00.372Z,21.92
2023-10-18T09:51:05.916Z,21.92
2023-10-18T09:52:11.460Z,21.93
2023-10-18T09:53:17.495Z,21.93
2023-10-18T09:54:23.178Z,21.92
2023-10-18T09:55:28.869Z,21.92
2023-10-18T09:56:34.894Z,21.92
2023-10-18T09:57:40.562Z,21.92
2023-10-18T09:58:46.440Z,21.92
2023-10-18T09:59:52.008Z,21.92
2023-10-18T10:00:57.537Z,21.93
2023-10-18T10:02:03.348Z,21.93
2023-10-18T10:03:09.568Z,21.93
2023-10-18T10:04:16.468Z,21.94
2023-10-18T10:05:22.365Z,21.93
2023-10-18T10:06:27.940Z,21.93
2023-10-18T10:07:33.459Z,21.96
2023-10-18T10:08:39.105Z,21.95
2023-10-18T10:09:47.293Z,21.95
2023-10-18T10:10:52.891Z,21.95
2023-10-18T10:11:58.430Z,21.94
2023-10-18T10:13:04.126Z,21.94
2023-10-18T10:14:09.750Z,21.94
2023-10-18T10:15:15.385Z,21.94
2023-10-18T10:16:20.997Z,21.95
2023-10-18T10:17:26.859Z,21.95
2023-10-18T10:18:33.118Z,21.95
2023-10-18T10:19:38.901Z,21.96
2023-10-18T10:20:44.703Z,21.97
2023-10-18T10:21:50.247Z,21.98
2023-10-18T10:22:55.906Z,21.99
2023-10-18T10:24:01.410Z,22.01
2023-10-18T10:25:07.851Z,22.04
2023-10-18T10:27:34.723Z,22.1
2023-10-18T10:28:40.262Z,22.11
2023-10-18T10:29:45.793Z,22.13
2023-10-18T10:30:51.365Z,22.15
2023-10-18T10:31:58.236Z,22.16
2023-10-18T10:33:04.149Z,22.15
2023-10-18T10:34:10.317Z,22.16
2023-10-18T10:35:16.182Z,22.15
2023-10-18T10:36:21.817Z,22.15
2023-10-18T10:37:27.698Z,22.16
2023-10-18T10:38:33.217Z,22.16
2023-10-18T10:39:38.893Z,22.16
2023-10-18T10:40:44.428Z,22.17
2023-10-18T10:41:50.017Z,22.16
2023-10-18T10:42:55.618Z,22.16
2023-10-18T10:44:01.230Z,22.16
2023-10-18T10:45:08.145Z,22.16
2023-10-18T10:46:13.954Z,22.15
2023-10-18T10:47:19.699Z,22.14
2023-10-18T10:48:25.364Z,22.14
2023-10-18T10:49:31.166Z,22.15
2023-10-18T10:50:36.818Z,22.15
2023-10-18T10:51:42.458Z,22.14
2023-10-18T10:52:48.067Z,22.14
2023-10-18T10:53:53.581Z,22.16
2023-10-18T10:54:59.503Z,22.15
2023-10-18T10:56:06.018Z,22.14
2023-10-18T10:57:11.501Z,22.15
2023-10-18T10:58:17.421Z,22.14
2023-10-18T10:59:23.145Z,22.15
2023-10-18T11:00:28.672Z,22.14
2023-10-18T11:01:34.273Z,22.14
2023-10-18T11:02:40.046Z,22.13
2023-10-18T11:03:45.821Z,22.15
2023-10-18T11:04:51.346Z,22.15
2023-10-18T11:05:57.000Z,22.15
2023-10-18T11:07:03.051Z,22.14
2023-10-18T11:08:08.746Z,22.15
2023-10-18T11:09:14.334Z,22.15
2023-10-18T11:10:19.904Z,22.16
2023-10-18T11:11:25.521Z,22.16
2023-10-18T11:12:31.017Z,22.16
2023-10-18T11:13:36.564Z,22.16
2023-10-18T11:14:42.187Z,22.16
2023-10-18T11:15:48.034Z,22.16
2023-10-18T11:16:53.715Z,22.17
2023-10-18T11:18:00.190Z,22.17
2023-10-18T11:19:05.921Z,22.16
2023-10-18T11:20:11.701Z,22.16
2023-10-18T11:21:17.312Z,22.16
2023-10-18T11:22:22.986Z,22.15
2023-10-18T11:23:29.018Z,22.16
2023-10-18T11:24:34.818Z,22.15
2023-10-18T11:25:40.371Z,22.16
2023-10-18T11:26:45.914Z,22.15
2023-10-18T11:27:51.490Z,22.15
2023-10-18T11:28:57.096Z,22.15
2023-10-18T11:30:02.607Z,22.14
2023-10-18T11:31:08.298Z,22.14
2023-10-18T11:32:14.378Z,22.14
2023-10-18T11:33:20.405Z,22.14
2023-10-18T11:34:26.346Z,22.14
2023-10-18T11:35:33.956Z,22.12
2023-10-18T11:36:39.460Z,22.13
2023-10-18T11:37:45.046Z,22.13
2023-10-18T11:38:50.584Z,22.14
2023-10-18T11:39:56.110Z,22.14
2023-10-18T11:41:02.006Z,22.13
2023-10-18T11:42:09.756Z,22.12
2023-10-18T11:43:15.756Z,22.11
2023-10-18T11:44:21.455Z,22.12
2023-10-18T11:45:26.973Z,22.12
2023-10-18T11:46:32.599Z,22.11
2023-10-18T11:47:38.457Z,22.11
2023-10-18T11:48:47.266Z,22.11
2023-10-18T11:49:52.827Z,22.11
2023-10-18T11:50:59.665Z,22.12
2023-10-18T11:52:05.221Z,22.12
2023-10-18T11:53:14.509Z,22.12
2023-10-18T11:54:20.125Z,22.13
2023-10-18T11:55:25.734Z,22.13
2023-10-18T11:56:31.367Z,22.14
2023-10-18T11:57:36.911Z,22.14
2023-10-18T11:58:42.677Z,22.14
2023-10-18T11:59:48.300Z,22.14
2023-10-18T12:00:53.887Z,22.15
2023-10-18T12:01:59.653Z,22.16
2023-10-18T12:03:05.562Z,22.15
2023-10-18T12:04:11.621Z,22.15
2023-10-18T12:05:19.654Z,22.16
2023-10-18T12:06:27.413Z,22.17
2023-10-18T12:07:33.052Z,22.18
2023-10-18T12:08:38.729Z,22.17
2023-10-18T12:09:44.792Z,22.18
2023-10-18T12:10:50.415Z,22.19
2023-10-18T12:11:55.934Z,22.19
2023-10-18T12:13:01.629Z,22.19
2023-10-18T12:14:07.460Z,22.19
2023-10-18T12:15:13.022Z,22.19
2023-10-18T12:16:18.568Z,22.2
2023-10-18T12:17:24.408Z,22.2
2023-10-18T12:18:30.120Z,22.21
2023-10-18T12:19:35.692Z,22.2
2023-10-18T12:20:41.466Z,22.21
2023-10-18T12:21:47.464Z,22.22
2023-10-18T12:22:52.987Z,22.22
2023-10-18T12:23:58.680Z,22.22
2023-10-18T12:25:04.273Z,22.23
2023-10-18T12:26:09.992Z,22.24
2023-10-18T12:27:15.546Z,22.24
2023-10-18T12:28:21.169Z,22.24
2023-10-18T12:29:26.848Z,22.24
2023-10-18T12:30:33.298Z,22.23
2023-10-18T12:31:38.911Z,22.23
2023-10-18T12:32:44.983Z,22.23
2023-10-18T12:33:53.522Z,22.24
2023-10-18T12:34:59.112Z,22.24
2023-10-18T12:36:04.697Z,22.24
2023-10-18T12:37:11.349Z,22.24
2023-10-18T12:38:18.714Z,22.25
2023-10-18T12:39:24.252Z,22.24
2023-10-18T12:40:29.903Z,22.25
2023-10-18T12:41:35.491Z,22.25
2023-10-18T12:42:41.036Z,22.26
2023-10-18T12:43:46.634Z,22.25
2023-10-18T12:44:52.159Z,22.25
2023-10-18T12:45:57.708Z,22.25
2023-10-18T12:47:03.552Z,22.25
2023-10-18T12:48:10.003Z,22.27
2023-10-18T12:49:18.136Z,22.29
2023-10-18T12:50:23.726Z,22.3
2023-10-18T12:51:29.262Z,22.32
2023-10-18T12:53:40.841Z,22.33
2023-10-18T12:54:46.704Z,22.33
2023-10-18T12:55:52.201Z,22.34
2023-10-18T12:56:57.734Z,22.35
2023-10-18T12:58:03.227Z,22.35
2023-10-18T12:59:08.769Z,22.34
2023-10-18T13:00:15.260Z,22.35
2023-10-18T13:01:21.035Z,22.38
2023-10-18T13:02:26.793Z,22.38
2023-10-18T13:03:32.610Z,22.37
2023-10-18T13:04:38.465Z,22.32
2023-10-18T13:05:44.028Z,22.28
2023-10-18T13:06:49.537Z,22.25
2023-10-18T13:07:55.181Z,22.23
2023-10-18T13:09:01.901Z,22.22
2023-10-18T13:10:07.445Z,22.21
2023-10-18T13:11:15.602Z,22.18
2023-10-18T13:12:21.415Z,22.18
2023-10-18T13:13:27.028Z,22.18
2023-10-18T13:14:33.257Z,22.17
2023-10-18T13:15:40.174Z,22.16
2023-10-18T13:16:45.877Z,22.16
2023-10-18T13:17:51.492Z,22.15
2023-10-18T13:18:57.661Z,22.15
2023-10-18T13:20:05.217Z,22.14
2023-10-18T13:21:11.070Z,22.15
2023-10-18T13:22:16.637Z,22.15
2023-10-18T13:23:22.288Z,22.16
2023-10-18T13:24:28.108Z,22.16
2023-10-18T13:25:34.308Z,22.15
2023-10-18T13:26:39.873Z,22.15
2023-10-18T13:27:45.466Z,22.14
2023-10-18T13:28:50.988Z,22.13
2023-10-18T13:29:56.690Z,22.13
2023-10-18T13:31:02.216Z,22.11
2023-10-18T13:32:08.283Z,22.1
2023-10-18T13:33:14.081Z,22.11
2023-10-18T13:34:20.044Z,22.1
2023-10-18T13:35:25.885Z,22.1
2023-10-18T13:36:31.636Z,22.09
2023-10-18T13:37:37.180Z,22.1
2023-10-18T13:38:42.719Z,22.1
2023-10-18T13:39:48.257Z,22.08
2023-10-18T13:40:53.853Z,22.08
2023-10-18T13:42:00.146Z,22.08
2023-10-18T13:43:05.864Z,22.08
2023-10-18T13:44:11.407Z,22.08
2023-10-18T13:45:17.066Z,22.08
2023-10-18T13:46:22.618Z,22.07
2023-10-18T13:47:28.350Z,22.08
2023-10-18T13:48:34.224Z,22.08
2023-10-18T13:49:39.815Z,22.08
2023-10-18T13:50:46.491Z,22.08
2023-10-18T13:51:51.993Z,22.08
2023-10-18T13:52:57.557Z,22.08
2023-10-18T13:54:03.233Z,22.08
2023-10-18T13:55:08.914Z,22.08
2023-10-18T13:56:14.642Z,22.08
2023-10-18T13:57:20.408Z,22.09
2023-10-18T13:58:25.943Z,22.12
2023-10-18T13:59:31.773Z,22.14
2023-10-18T14:00:37.795Z,22.15
2023-10-18T14:01:43.328Z,22.16
2023-10-18T14:02:49.044Z,22.16
2023-10-18T14:03:55.143Z,22.17
2023-10-18T14:05:00.871Z,22.19
2023-10-18T14:06:06.607Z,22.19
2023-10-18T14:07:14.632Z,22.21
2023-10-18T14:08:20.295Z,22.22
2023-10-18T14:09:25.945Z,22.24
2023-10-18T14:10:31.734Z,22.26
2023-10-18T14:11:37.304Z,22.27
2023-10-18T14:12:42.904Z,22.28
2023-10-18T14:13:48.550Z,22.29
2023-10-18T14:14:54.076Z,22.31
2023-10-18T14:15:59.720Z,22.31